Aircraft
UPR1017 PT-QAB TBM 850
ULWW
Vologda Airport
UUDL
Tunoshna Airport
Pilot:: Alex
Aircraft:: Asobo TBM 930 Passengers
Alternate: ULWW
Network: poscon
FLIGHT DETAILS
Distance: 104nm Duration 00h 33m
Cruise Speed: Flight Level: 16000
Validation: Pending Validation Type Charter
Flight Fuel
ZFW: 2062
Block Fuel/Initial FOB: 580
Flight Fuel: 99
Cargo
Passengers: 2
Cargo: 110
ROUTE
ROUTE: DCT
REMARKS:
DATE
Date: 26-05-05
Departure Time: 2012
Cargo: 110
FLIGHT DETAILS
Crashed: No
Validator Comments:
Flight Rating: 99
LANDING ANALYSIS
Landing wind: 270º/13 kt
Landing heading: 225º
Landing VS:: -66 ft/min
Landing IAS:: 64 kt
Landing Force G: 1 G
Landing Bank: 1
Landing Pitch: -4
Landing Flaps: 100
Navigation Lights: OFF
Landing Lights: ON
Beacon Lights: OFF
Strobe Lights: ON
viserfly

ALTITUDE CHART

viserfly

MAIN EVENTS

DATE EVENT IAS ALTITUDE
2026-05-05 20:10:07 FLYacars version 1.3.5 0 390
2026-05-05 20:10:07 Aircraft boarding in progress 0 390
2026-05-05 20:10:07 FLAPS 50% 0 390
2026-05-05 20:10:07 Navigation Lights ON 0 390
2026-05-05 20:10:07 Strobe Lights ON 0 390
2026-05-05 20:10:07 Landing Lights ON 0 390
2026-05-05 20:10:07 Starting Engine 1 0 390
2026-05-05 20:10:52 Aircraft taxiing to runway 0 390
2026-05-05 20:12:02 Detected Take-off roll, HDG 145, IAS 86kt, GS 93kt, G-force 1.1g, Pitch -4.3deg, Bank -0.6deg, Wind 266/10kt, Temp 17°C 86 390
2026-05-05 20:12:02 Airborne 86 390
2026-05-05 20:12:02 Beacon lights OFF and engines ON 86 390
2026-05-05 20:12:04 Gear UP, IAS 91kt, GS 98kt, ALT 22ft AGL 91 406
2026-05-05 20:12:11 FLAPS 0% 101kt, ALT 508ft 101 508
2026-05-05 20:43:07 FLAPS 50% 117kt, ALT 1339ft 117 1339
2026-05-05 20:43:08 Gear DOWN, IAS 116kt, GS 128kt, ALT 1027ft AGL 116 1338
2026-05-05 20:43:30 FLAPS 100% 108kt, ALT 990ft 108 990
2026-05-05 20:45:06 Landed at destination with a landing rate of -66fpm, G-force 1.0g, Pitch -3.9deg, Bank 0.6deg, HDG 225deg, IAS 64kt, GS 56kt, Wind 270/13kt, Temp 22°C 64 306
2026-05-05 20:45:06 Incorrect altimeter settings on landing 64 306
2026-05-05 20:45:07 Incorrect altimeter settings on takeoff 63 307
2026-05-05 20:45:12 FLAPS 50% 57 308
2026-05-05 20:45:13 FLAPS 0% 57 308
2026-05-05 20:45:27 Aircraft taxiing to apron 31 305
2026-05-05 20:46:21 Aircraft at gate/stand, ground services are moving into position, disembarkation has begun. Remaining FOB 481kg FLYacars v1.3.5 0 304
viserfly

ACARS DATA

DATE IAS GS ALTITUDE FUEL CONSUMED OAT FLIGHT STATUS
2026-05-05 20:10:37 0 0 390 1 17 BOARDING
2026-05-05 20:11:07 0 3 391 2 17 TAXI TO RUNWAY
2026-05-05 20:11:37 0 3 392 3 17 TAXI TO RUNWAY
2026-05-05 20:12:07 94 101 445 5 17 TAKEOFF
2026-05-05 20:12:37 154 154 884 8 17 TAKEOFF
2026-05-05 20:13:07 144 148 1495 9 12 INITIAL CLIMB
2026-05-05 20:13:37 170 175 2268 12 10 INITIAL CLIMB
2026-05-05 20:14:07 171 178 3130 13 8 CLIMB
2026-05-05 20:14:37 173 182 3981 15 6 CLIMB
2026-05-05 20:15:07 171 182 4827 17 4 CLIMB
2026-05-05 20:15:37 172 183 5677 19 3 CLIMB
2026-05-05 20:16:07 170 183 6521 20 2 CLIMB
2026-05-05 20:16:37 168 184 7366 22 1 CLIMB
2026-05-05 20:17:07 166 183 8210 24 0 CLIMB
2026-05-05 20:17:37 165 183 9054 25 -1 CLIMB
2026-05-05 20:18:07 163 182 9896 27 -2 CLIMB
2026-05-05 20:18:37 161 183 10740 29 -4 CLIMB
2026-05-05 20:19:07 184 211 10960 30 -5 ENROUTE
2026-05-05 20:19:37 199 231 10974 32 -4 ENROUTE
2026-05-05 20:20:07 206 238 10988 33 -5 ENROUTE
2026-05-05 20:20:37 209 242 10988 35 -5 ENROUTE
2026-05-05 20:21:07 210 243 10989 37 -5 ENROUTE
2026-05-05 20:21:37 210 244 10989 38 -5 ENROUTE
2026-05-05 20:22:07 210 244 10988 40 -5 ENROUTE
2026-05-05 20:22:37 202 234 10987 41 -5 ENROUTE
2026-05-05 20:23:07 198 229 10831 42 -4 DESCENT
2026-05-05 20:23:37 195 225 10705 44 -4 ENROUTE
2026-05-05 20:24:07 191 221 10701 45 -4 ENROUTE
2026-05-05 20:24:37 190 219 10697 46 -4 ENROUTE
2026-05-05 20:25:07 189 218 10701 48 -4 ENROUTE
2026-05-05 20:25:37 189 218 10700 49 -4 ENROUTE
2026-05-05 20:26:07 188 218 10701 50 -4 ENROUTE
2026-05-05 20:26:37 189 218 10701 52 -4 ENROUTE
2026-05-05 20:27:07 188 219 10700 53 -4 ENROUTE
2026-05-05 20:27:37 189 218 10712 54 -4 ENROUTE
2026-05-05 20:28:07 187 216 10797 55 -4 ENROUTE
2026-05-05 20:28:37 188 217 10798 57 -4 ENROUTE
2026-05-05 20:29:07 189 218 10798 58 -4 ENROUTE
2026-05-05 20:29:37 189 219 10799 59 -4 ENROUTE
2026-05-05 20:30:07 189 219 10798 61 -4 ENROUTE
2026-05-05 20:30:37 189 219 10798 62 -4 ENROUTE
2026-05-05 20:31:07 189 219 10799 63 -4 ENROUTE
2026-05-05 20:31:37 189 219 10798 64 -4 ENROUTE
2026-05-05 20:32:07 189 219 10799 66 -4 ENROUTE
2026-05-05 20:32:37 198 229 10506 67 -3 DESCENT
2026-05-05 20:33:07 201 233 10162 68 -3 DESCENT
2026-05-05 20:33:37 207 248 9577 70 -1 DESCENT
2026-05-05 20:34:07 214 254 8687 71 0 DESCENT
2026-05-05 20:34:37 217 252 7799 72 0 DESCENT
2026-05-05 20:35:07 217 248 6900 73 2 DESCENT
2026-05-05 20:35:37 218 245 6006 75 3 DESCENT
2026-05-05 20:36:07 218 243 5109 76 5 DESCENT
2026-05-05 20:36:37 219 242 4215 77 7 DESCENT
2026-05-05 20:37:07 218 239 3314 79 10 DESCENT
2026-05-05 20:37:37 219 236 2414 80 12 DESCENT
2026-05-05 20:38:07 199 215 2175 81 13 DESCENT
2026-05-05 20:38:37 191 206 2164 83 13 DESCENT
2026-05-05 20:39:07 187 203 2171 84 13 DESCENT
2026-05-05 20:39:37 187 202 2176 86 13 DESCENT
2026-05-05 20:40:07 187 203 2179 87 14 DESCENT
2026-05-05 20:40:37 186 202 2183 88 13 DESCENT
2026-05-05 20:41:07 187 203 2186 90 13 DESCENT
2026-05-05 20:41:37 188 205 2182 91 13 DESCENT
2026-05-05 20:42:07 174 191 2163 92 14 DESCENT
2026-05-05 20:42:37 154 168 1494 93 16 DESCENT
2026-05-05 20:43:07 119 131 1339 94 16 DESCENT
2026-05-05 20:43:37 91 88 900 94 21 ON FINAL
2026-05-05 20:44:07 81 73 738 96 21 ON FINAL
2026-05-05 20:44:37 81 73 468 97 22 ON FINAL
2026-05-05 20:45:07 64 55 307 97 22 ON FINAL
2026-05-05 20:45:37 21 16 305 98 22 TAXI TO APRON
2026-05-05 20:46:07 0 0 304 99 22 TAXI TO APRON
  • Join our VA!

    It has been 11 years of great learning, friendships, and stories.

  • Sign up now!